Time;durP1;ratioP1;P1;durP2;ratioP2;P2;SDS_P1;SDS_P2;PMS_P1;PMS_P2;Temp;Humidity;BMP_temperature;BMP_pressure;BME280_temperature;BME280_humidity;BME280_pressure;Samples;Min_cycle;Max_cycle;Signal;HPM_P1;HPM_P2
2022/04/28 00:00:12;;;;;;;17.17;6.07;;;4.60;99.90;;;;;;5013122;28;20512;-71
2022/04/28 00:02:39;;;;;;;13.75;5.75;;;4.70;99.90;;;;;;5026566;28;20049;-71
2022/04/28 00:05:06;;;;;;;13.75;6.30;;;4.70;99.90;;;;;;5016261;28;20063;-72
2022/04/28 00:07:32;;;;;;;15.32;6.47;;;4.70;99.90;;;;;;5014695;28;20062;-71
2022/04/28 00:09:58;;;;;;;14.23;5.32;;;4.70;99.90;;;;;;5020145;28;20920;-71
2022/04/28 00:12:24;;;;;;;17.70;5.80;;;4.70;99.90;;;;;;5017883;28;20056;-71
2022/04/28 00:14:49;;;;;;;13.00;5.65;;;4.70;99.90;;;;;;5024943;28;20053;-71
2022/04/28 00:17:15;;;;;;;16.30;5.75;;;4.70;99.90;;;;;;5023732;28;20044;-72
2022/04/28 00:19:41;;;;;;;12.70;5.88;;;4.70;99.90;;;;;;5024859;28;20068;-71
2022/04/28 00:22:07;;;;;;;14.20;5.82;;;4.70;99.90;;;;;;5029192;28;20045;-71
2022/04/28 00:24:32;;;;;;;16.23;6.63;;;4.60;99.90;;;;;;5024801;28;20356;-71
2022/04/28 00:26:58;;;;;;;17.63;5.85;;;4.60;99.90;;;;;;5026540;28;20933;-71
2022/04/28 00:29:24;;;;;;;15.05;6.60;;;4.50;99.90;;;;;;5023384;28;20040;-71
2022/04/28 00:31:50;;;;;;;13.75;6.28;;;4.50;99.90;;;;;;5025748;28;20438;-71
2022/04/28 00:34:15;;;;;;;15.40;5.82;;;4.50;99.90;;;;;;5024618;28;20043;-71
2022/04/28 00:36:42;;;;;;;13.45;6.63;;;4.50;99.90;;;;;;5025695;28;20052;-71
2022/04/28 00:39:07;;;;;;;15.43;6.00;;;4.40;99.90;;;;;;5025983;28;20059;-71
2022/04/28 00:41:33;;;;;;;13.43;5.70;;;4.40;99.90;;;;;;5024691;28;20493;-71
2022/04/28 00:44:00;;;;;;;16.00;6.60;;;4.50;99.90;;;;;;5023623;28;20037;-71
2022/04/28 00:46:26;;;;;;;14.50;6.05;;;4.50;99.90;;;;;;5027016;28;20106;-71
2022/04/28 00:51:36;;;;;;;13.90;5.93;;;4.60;99.90;;;;;;5020841;28;20056;-71
2022/04/28 00:54:04;;;;;;;14.73;5.80;;;4.50;99.90;;;;;;5025637;28;20656;-71
2022/04/28 00:56:30;;;;;;;13.88;6.03;;;4.50;99.90;;;;;;5022897;28;20492;-71
2022/04/28 00:59:02;;;;;;;19.38;6.57;;;4.50;99.90;;;;;;5023645;28;20072;-71
2022/04/28 01:01:31;;;;;;;11.98;6.43;;;4.50;99.90;;;;;;5020119;28;20072;-71
2022/04/28 01:03:57;;;;;;;17.77;6.50;;;4.50;99.90;;;;;;5023216;28;20167;-71
2022/04/28 01:06:23;;;;;;;14.80;6.97;;;4.40;99.90;;;;;;5019071;28;20118;-71
2022/04/28 01:08:49;;;;;;;16.35;6.95;;;4.40;99.90;;;;;;5009564;28;20048;-71
2022/04/28 01:11:18;;;;;;;18.20;5.97;;;4.30;99.90;;;;;;5001322;28;20057;-71
2022/04/28 01:13:45;;;;;;;16.42;7.00;;;4.30;99.90;;;;;;4997358;28;20724;-71
2022/04/28 01:16:13;;;;;;;14.13;6.68;;;4.40;99.90;;;;;;5000422;28;20053;-72
2022/04/28 01:18:39;;;;;;;15.18;7.15;;;4.40;99.90;;;;;;5003336;28;22207;-71
2022/04/28 01:21:09;;;;;;;14.73;6.90;;;4.40;99.90;;;;;;5000768;28;20753;-71
2022/04/28 01:23:36;;;;;;;18.58;7.50;;;4.30;99.90;;;;;;4996305;28;20060;-71
2022/04/28 01:26:03;;;;;;;15.63;6.75;;;4.30;99.90;;;;;;4994706;28;20120;-71
2022/04/28 01:28:29;;;;;;;15.77;7.00;;;4.20;99.90;;;;;;4993301;28;20053;-71
2022/04/28 01:30:55;;;;;;;17.98;7.05;;;4.10;99.90;;;;;;4998612;28;20037;-71
2022/04/28 01:33:21;;;;;;;14.40;7.38;;;4.10;99.90;;;;;;4995176;28;20041;-71
2022/04/28 01:35:47;;;;;;;17.65;7.40;;;4.10;99.90;;;;;;5001919;28;21286;-71
2022/04/28 01:38:13;;;;;;;15.25;6.28;;;4.00;99.90;;;;;;4998565;28;20041;-71
2022/04/28 01:40:38;;;;;;;12.27;5.68;;;3.80;99.90;;;;;;4999779;28;20102;-71
2022/04/28 01:43:04;;;;;;;14.73;6.15;;;3.50;99.90;;;;;;4994889;28;20057;-71
2022/04/28 01:45:30;;;;;;;12.93;7.00;;;3.40;99.90;;;;;;5001614;28;20053;-71
2022/04/28 01:47:56;;;;;;;12.95;6.40;;;3.30;99.90;;;;;;5003204;28;20542;-71
2022/04/28 01:50:21;;;;;;;11.23;5.90;;;3.20;99.90;;;;;;4998908;28;20052;-71
2022/04/28 01:55:32;;;;;;;13.02;6.03;;;3.10;99.90;;;;;;5001631;28;20517;-71
2022/04/28 01:57:58;;;;;;;14.45;5.47;;;3.10;99.90;;;;;;5005919;28;20190;-71
2022/04/28 02:00:24;;;;;;;14.65;5.93;;;3.00;99.90;;;;;;5003898;28;20600;-71
2022/04/28 02:02:50;;;;;;;21.15;6.60;;;3.10;99.90;;;;;;5001417;28;20041;-71
2022/04/28 02:05:16;;;;;;;14.73;7.53;;;3.30;99.90;;;;;;5001642;28;20270;-71
2022/04/28 02:07:42;;;;;;;17.75;7.07;;;3.30;99.90;;;;;;5002503;28;20045;-71
2022/04/28 02:10:08;;;;;;;16.02;6.68;;;3.20;99.90;;;;;;5000598;28;20045;-71
2022/04/28 02:12:34;;;;;;;15.52;7.95;;;3.20;99.90;;;;;;4999846;28;20045;-71
2022/04/28 02:15:00;;;;;;;12.48;6.13;;;3.10;99.90;;;;;;5022594;28;20045;-71
2022/04/28 02:17:28;;;;;;;12.73;6.72;;;2.90;99.90;;;;;;5019159;28;20364;-71
2022/04/28 02:19:54;;;;;;;12.20;6.32;;;2.80;99.90;;;;;;5023470;28;20048;-71
2022/04/28 02:22:21;;;;;;;14.00;6.38;;;2.70;99.90;;;;;;5022845;28;20168;-71
2022/04/28 02:24:47;;;;;;;13.75;6.43;;;2.70;99.90;;;;;;5020257;28;20498;-71
2022/04/28 02:27:14;;;;;;;12.35;6.28;;;2.60;99.90;;;;;;5023582;28;20045;-71
2022/04/28 02:29:39;;;;;;;16.45;7.70;;;2.60;99.90;;;;;;5006720;28;20083;-71
2022/04/28 02:32:05;;;;;;;14.88;7.22;;;2.60;99.90;;;;;;5007318;28;21163;-71
2022/04/28 02:34:31;;;;;;;16.45;7.72;;;2.60;99.90;;;;;;5004523;28;20737;-71
2022/04/28 02:36:57;;;;;;;13.85;7.35;;;2.60;99.90;;;;;;5025367;28;20049;-71
2022/04/28 02:39:23;;;;;;;12.45;6.85;;;2.60;99.90;;;;;;5019422;28;20061;-71
2022/04/28 02:41:49;;;;;;;14.63;8.35;;;2.60;99.90;;;;;;5022951;28;20572;-71
2022/04/28 02:44:15;;;;;;;15.90;7.20;;;2.70;99.90;;;;;;5011335;28;20055;-71
2022/04/28 02:46:48;;;;;;;15.65;7.72;;;2.70;99.90;;;;;;5022268;28;20045;-71
2022/04/28 02:49:14;;;;;;;11.02;6.05;;;2.70;99.90;;;;;;5002574;28;20473;-71
2022/04/28 02:51:40;;;;;;;12.77;6.07;;;2.50;99.90;;;;;;5028159;28;20044;-71
2022/04/28 02:54:06;;;;;;;10.15;5.93;;;2.30;99.90;;;;;;5025104;28;20047;-71
2022/04/28 02:56:32;;;;;;;12.15;6.15;;;2.30;99.90;;;;;;5018215;28;20053;-71
2022/04/28 02:59:17;;;;;;;18.98;6.85;;;2.30;99.90;;;;;;5022291;28;20470;-71
2022/04/28 03:01:43;;;;;;;12.52;6.88;;;2.30;99.90;;;;;;5042280;28;20375;-71
2022/04/28 03:04:09;;;;;;;12.38;7.43;;;2.20;99.90;;;;;;5022326;28;20075;-71
2022/04/28 03:12:03;;;;;;;12.80;7.05;;;2.20;99.90;;;;;;5022585;28;20081;-71
2022/04/28 03:14:29;;;;;;;14.98;7.40;;;2.30;99.90;;;;;;5023352;28;20063;-71
2022/04/28 03:16:55;;;;;;;15.68;7.93;;;2.30;99.90;;;;;;5006601;28;20094;-71
2022/04/28 03:19:20;;;;;;;13.55;7.13;;;2.20;99.90;;;;;;5037697;28;20045;-71
2022/04/28 03:21:46;;;;;;;13.27;6.13;;;2.20;99.90;;;;;;5019845;28;20432;-71
2022/04/28 03:24:12;;;;;;;18.75;6.63;;;2.10;99.90;;;;;;5021059;28;20039;-71
2022/04/28 03:26:39;;;;;;;24.05;6.35;;;2.20;99.90;;;;;;5002336;28;20044;-71
2022/04/28 03:29:04;;;;;;;19.25;7.25;;;2.20;99.90;;;;;;5044959;28;20299;-71
2022/04/28 03:31:30;;;;;;;20.77;8.15;;;2.20;99.90;;;;;;5019894;28;20418;-71
2022/04/28 03:33:56;;;;;;;18.17;8.40;;;2.20;99.90;;;;;;5021631;28;20132;-71
2022/04/28 03:39:06;;;;;;;11.35;6.63;;;2.10;99.90;;;;;;5020635;28;20110;-71
2022/04/28 03:41:32;;;;;;;22.50;7.63;;;2.10;99.90;;;;;;5020879;28;20044;-71
2022/04/28 03:43:57;;;;;;;16.15;4.75;;;2.10;99.90;;;;;;5005332;28;20063;-71
2022/04/28 03:46:24;;;;;;;16.08;6.75;;;2.00;99.90;;;;;;5003261;28;20080;-71
2022/04/28 03:48:50;;;;;;;21.08;7.15;;;2.00;99.90;;;;;;5003527;28;20434;-71
2022/04/28 03:51:16;;;;;;;14.55;7.25;;;2.00;99.90;;;;;;5002257;28;20052;-71
2022/04/28 03:53:42;;;;;;;13.93;7.22;;;1.90;99.90;;;;;;4986398;28;20033;-71
2022/04/28 03:56:08;;;;;;;15.38;6.50;;;1.90;99.90;;;;;;5016093;28;20056;-71
2022/04/28 03:58:33;;;;;;;11.40;6.55;;;1.90;99.90;;;;;;4995067;28;20068;-71
2022/04/28 04:01:00;;;;;;;23.38;6.28;;;1.80;99.90;;;;;;5012131;28;20101;-71
2022/04/28 04:03:26;;;;;;;15.80;6.60;;;1.80;99.90;;;;;;5012791;28;20390;-71
2022/04/28 04:05:52;;;;;;;13.32;6.53;;;1.80;99.90;;;;;;4993538;28;20055;-71
2022/04/28 04:08:17;;;;;;;14.18;7.70;;;1.70;99.90;;;;;;5011660;28;20454;-70
2022/04/28 04:10:43;;;;;;;12.38;6.95;;;1.70;99.90;;;;;;5002074;28;20580;-71
2022/04/28 04:13:09;;;;;;;20.75;8.13;;;1.60;99.90;;;;;;5024052;28;20105;-71
2022/04/28 04:15:35;;;;;;;13.93;7.40;;;1.60;99.90;;;;;;5020891;28;20142;-71
2022/04/28 04:18:02;;;;;;;23.42;8.73;;;1.70;99.90;;;;;;4990141;28;20528;-71
2022/04/28 04:20:28;;;;;;;15.38;8.18;;;1.70;99.90;;;;;;5007900;28;20160;-71
2022/04/28 04:22:54;;;;;;;13.60;7.75;;;1.80;99.90;;;;;;5027528;28;20083;-71
2022/04/28 04:25:20;;;;;;;24.85;8.57;;;1.80;99.90;;;;;;5031121;28;20056;-71
2022/04/28 04:27:46;;;;;;;16.23;8.68;;;1.70;99.90;;;;;;5026368;28;20495;-71
2022/04/28 04:32:57;;;;;;;29.95;8.73;;;1.90;99.90;;;;;;5024612;28;20041;-71
2022/04/28 04:35:23;;;;;;;15.10;8.25;;;2.10;99.90;;;;;;5007419;28;20063;-71
2022/04/28 04:37:53;;;;;;;27.15;9.77;;;2.10;99.90;;;;;;5026449;28;20076;-70
2022/04/28 04:40:20;;;;;;;27.10;9.90;;;2.20;99.90;;;;;;5011396;28;20071;-71
2022/04/28 04:42:45;;;;;;;43.63;9.82;;;2.30;99.90;;;;;;5031868;28;20289;-71
2022/04/28 04:45:12;;;;;;;14.65;7.95;;;2.30;99.90;;;;;;5011893;28;20432;-71
2022/04/28 04:47:38;;;;;;;17.17;8.55;;;2.30;99.90;;;;;;5022632;28;20348;-71
2022/04/28 04:50:06;;;;;;;13.18;8.13;;;2.30;99.90;;;;;;5007387;28;20087;-71
2022/04/28 04:52:32;;;;;;;18.05;8.25;;;2.40;99.90;;;;;;5023805;28;20470;-71
2022/04/28 04:54:58;;;;;;;24.45;8.57;;;2.30;99.90;;;;;;5007315;28;20052;-71
2022/04/28 04:57:24;;;;;;;19.27;7.40;;;2.20;99.90;;;;;;5025076;28;20159;-71
2022/04/28 04:59:50;;;;;;;15.73;8.07;;;2.30;99.90;;;;;;5024953;28;20044;-71
2022/04/28 05:02:16;;;;;;;19.30;9.02;;;2.40;99.90;;;;;;5003925;28;20049;-71
2022/04/28 05:04:42;;;;;;;21.58;8.80;;;2.50;99.90;;;;;;5025298;28;20048;-71
2022/04/28 05:07:09;;;;;;;22.85;9.45;;;2.60;99.90;;;;;;5006807;28;20102;-71
2022/04/28 05:09:35;;;;;;;18.23;8.68;;;2.60;99.90;;;;;;5023784;28;20041;-72
2022/04/28 05:12:01;;;;;;;26.63;9.40;;;2.70;99.90;;;;;;5026082;28;20052;-71
2022/04/28 05:14:27;;;;;;;19.10;8.82;;;2.80;99.90;;;;;;5010690;28;20057;-71
2022/04/28 05:16:53;;;;;;;28.77;9.13;;;2.90;99.90;;;;;;5008144;28;20067;-71
2022/04/28 05:19:19;;;;;;;18.98;8.38;;;3.00;99.90;;;;;;5026329;28;20872;-71
2022/04/28 05:21:44;;;;;;;23.58;9.32;;;3.10;99.90;;;;;;5027230;28;20072;-71
2022/04/28 05:24:10;;;;;;;21.52;9.07;;;3.30;99.90;;;;;;5026900;28;20735;-71
2022/04/28 05:26:36;;;;;;;34.60;10.35;;;3.40;99.90;;;;;;5024561;28;20138;-71
2022/04/28 05:29:02;;;;;;;22.17;10.80;;;3.50;99.90;;;;;;5023819;28;20098;-71
2022/04/28 05:31:28;;;;;;;20.60;11.23;;;3.60;99.90;;;;;;5009388;28;20052;-71
2022/04/28 05:33:53;;;;;;;25.33;12.45;;;3.60;99.90;;;;;;5025328;28;20048;-71
2022/04/28 05:36:20;;;;;;;28.55;12.48;;;3.80;99.90;;;;;;5026072;28;20044;-71
2022/04/28 05:38:46;;;;;;;25.02;13.98;;;4.00;99.90;;;;;;5026186;28;21000;-71
2022/04/28 05:41:12;;;;;;;22.33;12.63;;;4.20;99.90;;;;;;5023406;28;20037;-71
2022/04/28 05:46:25;;;;;;;27.80;13.57;;;4.50;99.90;;;;;;4985724;28;20071;-71
2022/04/28 05:48:51;;;;;;;25.23;12.73;;;4.60;99.90;;;;;;5006154;28;20140;-71
2022/04/28 05:51:18;;;;;;;32.63;13.88;;;4.70;99.90;;;;;;5023278;28;20049;-71
2022/04/28 05:53:43;;;;;;;31.30;15.05;;;4.90;99.90;;;;;;5006848;28;20566;-71
2022/04/28 05:56:09;;;;;;;26.23;13.82;;;5.10;99.90;;;;;;5024415;28;20102;-71
2022/04/28 05:58:35;;;;;;;28.15;14.48;;;5.20;99.90;;;;;;5026299;28;20063;-71
2022/04/28 06:01:01;;;;;;;25.65;12.65;;;5.40;99.90;;;;;;5024808;28;21074;-71
2022/04/28 06:03:27;;;;;;;25.55;14.07;;;5.50;99.90;;;;;;5026988;28;20045;-71
2022/04/28 06:05:53;;;;;;;27.88;14.35;;;5.70;99.90;;;;;;5027685;28;20552;-71
2022/04/28 06:08:19;;;;;;;32.33;14.73;;;5.90;99.90;;;;;;5020408;28;20432;-71
2022/04/28 06:10:44;;;;;;;48.45;14.75;;;6.00;99.90;;;;;;5005496;28;20401;-71
2022/04/28 06:13:11;;;;;;;114.28;19.85;;;6.20;99.90;;;;;;5004508;28;20052;-71
2022/04/28 06:15:37;;;;;;;35.63;17.13;;;6.30;99.90;;;;;;5007036;28;20140;-71
2022/04/28 06:18:03;;;;;;;23.63;16.02;;;6.60;99.90;;;;;;5026032;28;20043;-71
2022/04/28 06:20:28;;;;;;;67.93;15.68;;;6.50;99.90;;;;;;5026618;28;20048;-71
2022/04/28 06:22:54;;;;;;;35.78;14.00;;;6.70;99.90;;;;;;5008512;28;20053;-71
2022/04/28 06:25:23;;;;;;;29.70;14.20;;;6.80;99.90;;;;;;5028921;28;20122;-71
2022/04/28 06:27:49;;;;;;;27.33;13.88;;;6.80;99.90;;;;;;5005797;28;20080;-71
2022/04/28 06:30:15;;;;;;;26.00;14.38;;;6.90;99.90;;;;;;5024633;28;20152;-71
2022/04/28 06:32:41;;;;;;;28.08;14.30;;;7.00;99.90;;;;;;5005073;28;20045;-71
2022/04/28 06:35:08;;;;;;;26.73;13.93;;;7.10;99.90;;;;;;5021568;28;20511;-71
2022/04/28 06:37:34;;;;;;;57.90;15.85;;;7.10;99.90;;;;;;5027563;28;20053;-72
2022/04/28 06:39:59;;;;;;;53.75;16.55;;;7.20;99.90;;;;;;5008467;28;20122;-71
2022/04/28 06:42:25;;;;;;;38.60;14.30;;;7.40;99.90;;;;;;5005625;28;20126;-71
2022/04/28 06:44:51;;;;;;;39.55;14.00;;;7.40;99.90;;;;;;5005109;28;20045;-71
2022/04/28 06:47:17;;;;;;;31.98;14.73;;;7.50;99.90;;;;;;5025953;28;20102;-71
2022/04/28 06:49:42;;;;;;;35.05;14.43;;;7.70;99.90;;;;;;5006531;28;20059;-71
2022/04/28 06:52:08;;;;;;;53.70;16.63;;;7.80;99.90;;;;;;5026418;28;21239;-71
2022/04/28 06:54:34;;;;;;;46.17;15.57;;;7.80;99.90;;;;;;5021465;28;20118;-71
2022/04/28 06:57:00;;;;;;;36.63;15.13;;;7.90;99.90;;;;;;5006321;28;20521;-72
2022/04/28 06:59:25;;;;;;;33.90;15.07;;;7.90;99.90;;;;;;5021404;28;20049;-71
2022/04/28 07:01:51;;;;;;;42.58;15.38;;;7.90;99.90;;;;;;5005136;28;20190;-71
2022/04/28 07:04:17;;;;;;;42.83;15.52;;;8.00;99.90;;;;;;5024141;28;20401;-72
2022/04/28 07:06:43;;;;;;;35.92;16.13;;;8.20;99.90;;;;;;5006046;28;20496;-71
2022/04/28 07:09:09;;;;;;;34.22;14.52;;;8.30;99.90;;;;;;5023882;28;20131;-71
2022/04/28 07:11:34;;;;;;;26.38;14.75;;;8.50;99.90;;;;;;4987717;28;20055;-72
2022/04/28 07:14:00;;;;;;;27.77;14.63;;;8.50;99.90;;;;;;5005130;28;20083;-72
2022/04/28 07:16:26;;;;;;;24.80;14.43;;;8.70;99.90;;;;;;5022683;28;20078;-72
2022/04/28 07:18:52;;;;;;;21.33;11.23;;;8.80;99.90;;;;;;5024030;28;20048;-72
2022/04/28 07:21:18;;;;;;;23.40;11.63;;;8.90;99.90;;;;;;5022064;28;20057;-72
2022/04/28 07:23:43;;;;;;;23.52;12.48;;;9.10;99.90;;;;;;5005412;28;20056;-72
2022/04/28 07:26:09;;;;;;;19.58;11.65;;;9.10;99.90;;;;;;5027885;28;20048;-72
2022/04/28 07:28:35;;;;;;;28.67;12.63;;;9.30;99.90;;;;;;5023210;28;20049;-72
2022/04/28 07:31:02;;;;;;;20.83;11.02;;;9.50;99.90;;;;;;5019427;28;20144;-71
2022/04/28 07:33:28;;;;;;;18.20;10.93;;;9.60;99.90;;;;;;5007499;28;20041;-72
2022/04/28 07:35:54;;;;;;;20.95;10.20;;;9.70;99.90;;;;;;5024953;28;20139;-72
2022/04/28 07:38:21;;;;;;;15.55;8.20;;;9.80;99.90;;;;;;5024184;28;20092;-72
2022/04/28 07:40:48;;;;;;;16.30;9.05;;;9.60;99.90;;;;;;5027009;28;20144;-72
2022/04/28 07:43:14;;;;;;;18.30;9.43;;;9.60;99.90;;;;;;5026088;28;20143;-72
2022/04/28 07:45:40;;;;;;;25.25;10.13;;;9.90;99.90;;;;;;5002663;28;20083;-72
2022/04/28 07:48:06;;;;;;;16.10;8.77;;;10.00;99.90;;;;;;5003814;28;20456;-72
2022/04/28 07:50:32;;;;;;;17.95;9.48;;;10.00;99.90;;;;;;5005182;28;20045;-72
2022/04/28 07:52:58;;;;;;;15.48;8.45;;;10.10;99.90;;;;;;5021160;28;20044;-72
2022/04/28 07:55:23;;;;;;;18.35;9.07;;;10.30;99.90;;;;;;5003954;28;20126;-72
2022/04/28 07:57:49;;;;;;;17.45;6.82;;;10.40;99.90;;;;;;5024770;28;20123;-72
2022/04/28 08:00:15;;;;;;;24.75;7.95;;;10.50;99.90;;;;;;5024561;28;20048;-72
2022/04/28 08:02:41;;;;;;;15.98;7.20;;;10.70;99.90;;;;;;5005310;28;20056;-72
2022/04/28 08:05:08;;;;;;;13.05;6.80;;;10.90;99.90;;;;;;5018603;28;20073;-72
2022/04/28 08:07:34;;;;;;;14.20;5.68;;;10.90;99.90;;;;;;5012272;28;20081;-72
2022/04/28 08:10:01;;;;;;;14.70;5.95;;;10.70;99.90;;;;;;5019876;28;20037;-72
2022/04/28 08:12:27;;;;;;;13.43;6.25;;;10.80;99.90;;;;;;5019855;28;20045;-72
2022/04/28 08:14:53;;;;;;;12.85;5.63;;;10.90;99.90;;;;;;5024281;28;20059;-72
2022/04/28 08:17:18;;;;;;;17.45;6.72;;;10.90;99.90;;;;;;5004155;28;20405;-72
2022/04/28 08:19:44;;;;;;;18.23;6.68;;;11.00;99.90;;;;;;5004472;28;20056;-72
2022/04/28 08:22:10;;;;;;;15.68;6.70;;;11.10;99.90;;;;;;5019284;28;20057;-72
2022/04/28 08:24:36;;;;;;;23.33;6.50;;;11.00;99.90;;;;;;5007304;28;20059;-72
2022/04/28 08:27:03;;;;;;;16.73;6.65;;;11.30;99.90;;;;;;5004414;28;20044;-72
2022/04/28 08:29:29;;;;;;;17.90;7.55;;;11.40;99.90;;;;;;5020405;28;20052;-72
2022/04/28 08:31:55;;;;;;;14.05;6.03;;;12.00;99.90;;;;;;5024087;28;20060;-72
2022/04/28 08:34:22;;;;;;;38.58;6.72;;;12.10;99.90;;;;;;5008828;28;20053;-72
2022/04/28 08:36:49;;;;;;;10.32;4.70;;;12.70;99.90;;;;;;5019695;28;20049;-72
2022/04/28 08:39:16;;;;;;;15.35;6.25;;;12.40;99.90;;;;;;5006583;28;20197;-72
2022/04/28 08:41:47;;;;;;;13.27;5.85;;;12.10;99.90;;;;;;5021721;28;20072;-72
2022/04/28 08:44:17;;;;;;;15.15;6.35;;;12.70;99.90;;;;;;5008186;28;20052;-72
2022/04/28 08:46:50;;;;;;;12.05;5.70;;;12.90;99.90;;;;;;5005609;28;20792;-72
2022/04/28 08:49:38;;;;;;;13.50;4.90;;;12.60;99.90;;;;;;5026307;28;20053;-72
2022/04/28 08:52:06;;;;;;;13.02;5.15;;;12.20;99.90;;;;;;5021808;28;20051;-72
2022/04/28 08:54:36;;;;;;;14.57;5.28;;;12.20;99.90;;;;;;5026914;28;20041;-72
2022/04/28 08:57:02;;;;;;;20.00;11.05;;;11.80;99.90;;;;;;5025965;28;20110;-72
2022/04/28 08:59:27;;;;;;;12.48;5.63;;;11.70;99.90;;;;;;4986279;28;20595;-72
2022/04/28 09:01:53;;;;;;;12.77;5.57;;;12.20;99.90;;;;;;5025349;28;20105;-72
2022/04/28 09:04:21;;;;;;;14.45;5.72;;;12.00;99.90;;;;;;5026428;28;20045;-72
2022/04/28 09:06:50;;;;;;;14.02;5.38;;;12.40;99.90;;;;;;5004068;28;20080;-72
2022/04/28 09:09:17;;;;;;;13.45;5.82;;;12.00;99.90;;;;;;5022163;28;20049;-72
2022/04/28 09:11:45;;;;;;;15.25;5.97;;;12.60;99.90;;;;;;5021935;28;20051;-72
2022/04/28 09:14:20;;;;;;;13.50;5.55;;;12.40;99.90;;;;;;5004567;28;20063;-73
2022/04/28 09:16:50;;;;;;;14.25;5.90;;;12.70;99.90;;;;;;5000825;28;20140;-73
2022/04/28 09:19:17;;;;;;;14.95;5.40;;;12.60;99.90;;;;;;5005902;28;20122;-73
2022/04/28 09:21:43;;;;;;;12.40;5.22;;;13.40;99.90;;;;;;5024869;28;20055;-73
2022/04/28 09:24:10;;;;;;;10.57;5.38;;;13.40;99.90;;;;;;5041588;28;20053;-73
2022/04/28 09:26:37;;;;;;;14.73;5.45;;;13.00;99.90;;;;;;5022141;28;20048;-73
2022/04/28 09:29:04;;;;;;;15.80;5.57;;;12.70;99.90;;;;;;5023074;28;20051;-73
2022/04/28 09:31:34;;;;;;;13.57;5.13;;;12.80;99.90;;;;;;5005017;28;20091;-73
2022/04/28 09:34:13;;;;;;;12.90;5.45;;;13.40;99.90;;;;;;5024203;28;20044;-73
2022/04/28 09:36:40;;;;;;;13.48;5.20;;;13.50;99.90;;;;;;4999467;28;20132;-73
2022/04/28 09:39:07;;;;;;;14.57;5.65;;;13.40;99.90;;;;;;5024472;28;20056;-73
2022/04/28 09:44:20;;;;;;;12.05;5.25;;;13.60;99.90;;;;;;5025012;28;20151;-72
2022/04/28 09:46:48;;;;;;;12.07;5.28;;;13.70;99.90;;;;;;5020512;28;20045;-73
2022/04/28 09:49:17;;;;;;;13.98;5.82;;;13.50;99.90;;;;;;5020104;28;20052;-73
2022/04/28 09:51:43;;;;;;;14.18;5.13;;;14.40;99.90;;;;;;5003562;28;20052;-73
2022/04/28 09:54:13;;;;;;;12.70;5.28;;;14.50;99.90;;;;;;5016621;28;20401;-73
2022/04/28 09:56:41;;;;;;;12.40;4.65;;;13.90;99.90;;;;;;4999248;28;20060;-73
2022/04/28 09:59:09;;;;;;;10.60;4.45;;;13.90;99.90;;;;;;4989947;28;20361;-73
2022/04/28 10:01:37;;;;;;;16.67;5.03;;;14.30;99.90;;;;;;5020938;28;20059;-73
2022/04/28 10:04:04;;;;;;;13.60;4.68;;;14.40;99.90;;;;;;5025727;28;20040;-73
2022/04/28 10:06:36;;;;;;;10.82;4.20;;;14.20;99.90;;;;;;5021182;28;20072;-73
2022/04/28 10:09:12;;;;;;;10.32;4.40;;;14.30;99.90;;;;;;5043092;28;20505;-73
2022/04/28 10:11:38;;;;;;;21.92;4.68;;;14.00;99.90;;;;;;5021585;28;20151;-72
2022/04/28 10:14:06;;;;;;;12.25;4.20;;;14.60;99.90;;;;;;5024127;28;20056;-72
2022/04/28 10:16:32;;;;;;;9.40;3.40;;;15.10;99.90;;;;;;5014524;28;20095;-72
2022/04/28 10:19:14;;;;;;;12.88;3.60;;;14.80;95.80;;;;;;5016006;28;20041;-73
2022/04/28 10:21:59;;;;;;;11.73;3.20;;;14.90;99.90;;;;;;5010096;28;20720;-73
2022/04/28 10:32:58;;;;;;;10.40;3.17;;;15.10;93.80;;;;;;4998541;28;20061;-72
2022/04/28 10:35:42;;;;;;;11.60;3.15;;;14.50;95.30;;;;;;5014747;28;20524;-72
2022/04/28 10:38:30;;;;;;;9.80;2.88;;;15.60;99.90;;;;;;5016571;28;20055;-72
2022/04/28 10:41:10;;;;;;;8.52;3.10;;;15.30;95.30;;;;;;4999780;28;20407;-72
2022/04/28 10:43:41;;;;;;;8.38;2.92;;;15.10;99.40;;;;;;5035467;28;20534;-72
2022/04/28 10:46:07;;;;;;;11.30;2.85;;;14.60;97.80;;;;;;5018254;28;20704;-72
2022/04/28 10:48:35;;;;;;;14.43;3.33;;;14.50;99.90;;;;;;4996667;28;20160;-72
2022/04/28 10:51:19;;;;;;;8.48;2.67;;;15.00;99.90;;;;;;5016930;28;20041;-72
2022/04/28 10:54:11;;;;;;;8.80;2.78;;;15.70;96.60;;;;;;5015295;28;20054;-72
2022/04/28 10:56:40;;;;;;;9.15;3.17;;;15.50;92.00;;;;;;5010913;28;20599;-72
2022/04/28 10:59:34;;;;;;;7.50;2.72;;;15.50;93.20;;;;;;5017376;28;20048;-72
2022/04/28 11:02:15;;;;;;;9.32;3.17;;;15.20;92.90;;;;;;4995934;28;20123;-72
2022/04/28 11:04:43;;;;;;;9.88;3.65;;;15.30;99.80;;;;;;4992595;28;20045;-72
2022/04/28 11:07:11;;;;;;;11.32;3.35;;;14.30;91.90;;;;;;5011190;28;20452;-72
2022/04/28 11:09:49;;;;;;;13.40;3.63;;;14.10;96.70;;;;;;4999022;28;20164;-72
2022/04/28 11:12:18;;;;;;;15.63;3.53;;;14.20;93.50;;;;;;5024211;28;20064;-72
2022/04/28 11:14:46;;;;;;;10.70;3.47;;;15.10;96.30;;;;;;5005528;28;21252;-72
2022/04/28 11:17:13;;;;;;;8.32;3.13;;;15.70;96.70;;;;;;5027343;28;20561;-73
2022/04/28 11:19:41;;;;;;;12.98;3.55;;;15.10;85.50;;;;;;5027553;28;20122;-72
2022/04/28 11:22:07;;;;;;;9.77;3.45;;;16.10;93.00;;;;;;5031593;28;20060;-72
2022/04/28 11:24:33;;;;;;;9.25;3.53;;;15.70;86.20;;;;;;5023522;28;20397;-72
2022/04/28 11:27:00;;;;;;;10.60;3.50;;;15.40;76.10;;;;;;5022713;28;20847;-72
2022/04/28 11:29:28;;;;;;;11.77;3.45;;;15.60;96.90;;;;;;5027812;28;20064;-72
2022/04/28 11:31:54;;;;;;;13.65;3.75;;;16.30;94.40;;;;;;5025564;28;20049;-72
2022/04/28 11:34:20;;;;;;;14.23;3.60;;;16.10;92.70;;;;;;4991943;28;20052;-72
2022/04/28 11:36:46;;;;;;;12.73;3.80;;;16.00;90.60;;;;;;5012531;28;20060;-72
2022/04/28 11:39:39;;;;;;;9.90;3.83;;;15.60;78.30;;;;;;5008614;28;20072;-72
2022/04/28 11:42:10;;;;;;;15.68;3.90;;;15.90;83.50;;;;;;5022243;28;20098;-72
2022/04/28 11:44:53;;;;;;;14.05;4.00;;;15.30;92.70;;;;;;5026450;28;20048;-72
2022/04/28 11:47:21;;;;;;;9.98;3.70;;;15.80;85.10;;;;;;5026727;28;20119;-71
2022/04/28 11:49:49;;;;;;;11.05;3.50;;;15.90;94.70;;;;;;5028874;28;20071;-72
2022/04/28 11:52:33;;;;;;;10.05;3.60;;;15.70;80.00;;;;;;5008385;28;20118;-72
2022/04/28 11:55:03;;;;;;;11.40;4.10;;;15.50;85.80;;;;;;5028687;28;20045;-72
2022/04/28 11:57:30;;;;;;;11.40;3.58;;;15.90;83.70;;;;;;5041654;28;20067;-72
2022/04/28 11:59:57;;;;;;;7.70;3.58;;;15.90;92.30;;;;;;5008746;28;20140;-72
2022/04/28 12:02:34;;;;;;;12.57;3.90;;;15.70;90.00;;;;;;5027760;28;20139;-71
2022/04/28 12:05:05;;;;;;;10.88;3.78;;;15.30;93.40;;;;;;5029314;28;20106;-72
2022/04/28 12:07:33;;;;;;;10.52;3.83;;;15.00;83.60;;;;;;5026420;28;20059;-72
2022/04/28 12:15:29;;;;;;;11.30;3.88;;;16.30;78.90;;;;;;5028361;28;20295;-73
2022/04/28 12:20:52;;;;;;;9.20;3.72;;;17.10;90.10;;;;;;5023834;28;20490;-72
2022/04/28 12:23:32;;;;;;;9.38;3.78;;;16.50;83.70;;;;;;5004671;28;20053;-72
2022/04/28 12:26:02;;;;;;;10.95;4.32;;;16.30;90.10;;;;;;5006616;28;20388;-73
2022/04/28 12:28:33;;;;;;;10.50;4.18;;;16.00;79.50;;;;;;5023163;28;20461;-72
2022/04/28 12:31:00;;;;;;;10.40;4.10;;;16.30;79.60;;;;;;5024443;28;20433;-72
2022/04/28 12:33:28;;;;;;;11.15;4.00;;;16.60;91.40;;;;;;5025680;28;20580;-72
2022/04/28 12:36:07;;;;;;;13.23;4.00;;;17.30;82.70;;;;;;5028370;28;20107;-73
2022/04/28 12:38:35;;;;;;;11.05;3.53;;;16.70;80.60;;;;;;5027758;28;20076;-72
2022/04/28 12:41:22;;;;;;;9.15;3.58;;;16.80;85.20;;;;;;5026117;28;20477;-73
2022/04/28 12:43:50;;;;;;;9.70;3.65;;;17.00;83.90;;;;;;5025128;28;20620;-72
2022/04/28 12:46:44;;;;;;;11.73;3.92;;;16.00;77.90;;;;;;5008917;28;20049;-73
2022/04/28 12:49:12;;;;;;;10.43;4.00;;;16.10;79.70;;;;;;5026634;28;20122;-72
2022/04/28 12:51:45;;;;;;;23.95;7.20;;;16.10;84.50;;;;;;5041014;28;20053;-73
2022/04/28 12:54:11;;;;;;;11.98;4.03;;;16.50;80.40;;;;;;5027255;28;20098;-73
2022/04/28 12:56:38;;;;;;;11.07;4.13;;;16.40;89.10;;;;;;5025357;28;20673;-72
2022/04/28 12:59:06;;;;;;;14.98;4.00;;;16.30;86.60;;;;;;5027060;28;20053;-72
2022/04/28 13:01:33;;;;;;;19.30;4.22;;;16.40;83.00;;;;;;5008201;28;20124;-73
2022/04/28 13:04:02;;;;;;;13.35;3.92;;;17.00;84.40;;;;;;5029981;28;20040;-73
2022/04/28 13:06:30;;;;;;;11.50;4.22;;;16.90;73.60;;;;;;5011992;28;20060;-73
2022/04/28 13:08:58;;;;;;;16.70;4.28;;;16.70;78.70;;;;;;5028614;28;20055;-73
2022/04/28 13:11:33;;;;;;;10.93;3.80;;;17.80;82.70;;;;;;5028755;28;20517;-72
2022/04/28 13:14:00;;;;;;;8.70;3.75;;;16.80;77.40;;;;;;5011515;28;20750;-72
2022/04/28 13:16:27;;;;;;;10.80;3.42;;;15.50;77.40;;;;;;5029057;28;20056;-72
2022/04/28 13:18:53;;;;;;;12.48;4.22;;;16.20;79.00;;;;;;5010393;28;20052;-72
2022/04/28 13:21:20;;;;;;;14.20;3.88;;;16.10;78.00;;;;;;5018070;28;20078;-73